createdAt,value
2023-12-11T00:01:34.675Z,7.03
2023-12-11T00:06:36.581Z,6.75
2023-12-11T00:11:38.339Z,7.68
2023-12-11T00:16:40.371Z,6.88
2023-12-11T00:21:42.487Z,6.57
2023-12-11T00:26:44.329Z,7.57
2023-12-11T00:31:46.048Z,6.93
2023-12-11T00:36:48.704Z,6.53
2023-12-11T00:41:51.216Z,7.25
2023-12-11T00:46:52.965Z,6.32
2023-12-11T00:51:54.813Z,7.97
2023-12-11T00:56:56.657Z,7.85
2023-12-11T01:01:58.376Z,8.00
2023-12-11T01:07:00.130Z,6.55
2023-12-11T01:12:01.967Z,6.13
2023-12-11T01:17:36.195Z,6.95
2023-12-11T01:22:25.366Z,7.15
2023-12-11T01:27:27.036Z,7.20
2023-12-11T01:32:28.761Z,8.10
2023-12-11T01:37:30.691Z,8.38
2023-12-11T01:42:34.260Z,7.50
2023-12-11T01:47:36.114Z,8.93
2023-12-11T01:52:38.579Z,7.80
2023-12-11T01:57:40.260Z,8.18
2023-12-11T02:02:42.572Z,6.28
2023-12-11T02:07:44.474Z,7.13
2023-12-11T02:12:46.349Z,7.00
2023-12-11T02:17:48.088Z,7.10
2023-12-11T02:22:50.686Z,5.53
2023-12-11T02:27:52.768Z,6.22
2023-12-11T02:32:54.559Z,7.20
2023-12-11T02:37:56.285Z,5.22
2023-12-11T02:42:58.169Z,6.97
2023-12-11T02:48:04.238Z,6.85
2023-12-11T02:53:06.353Z,6.43
2023-12-11T02:58:08.243Z,7.45
2023-12-11T03:03:10.470Z,6.22
2023-12-11T03:08:12.230Z,6.93
2023-12-11T03:13:14.012Z,6.45
2023-12-11T03:18:15.948Z,6.43
2023-12-11T03:23:17.711Z,6.72
2023-12-11T03:28:19.425Z,5.78
2023-12-11T03:33:21.310Z,5.97
2023-12-11T03:38:23.068Z,6.70
2023-12-11T03:43:24.816Z,7.90
2023-12-11T03:48:26.992Z,7.35
2023-12-11T03:53:28.836Z,6.85
2023-12-11T03:58:30.580Z,6.57
2023-12-11T04:03:32.722Z,6.05
2023-12-11T04:08:34.497Z,7.47
2023-12-11T04:13:36.720Z,6.45
2023-12-11T04:18:38.581Z,6.03
2023-12-11T04:23:40.463Z,6.07
2023-12-11T04:28:42.218Z,7.10
2023-12-11T04:33:44.269Z,6.03
2023-12-11T04:38:46.189Z,5.47
2023-12-11T04:43:47.962Z,3.78
2023-12-11T04:48:49.789Z,3.85
2023-12-11T04:53:51.621Z,3.78
2023-12-11T04:58:53.389Z,5.15
2023-12-11T05:03:55.159Z,3.92
2023-12-11T05:08:56.945Z,4.30
2023-12-11T05:13:58.708Z,4.68
2023-12-11T05:19:00.528Z,4.80
2023-12-11T05:24:02.315Z,6.03
2023-12-11T05:29:05.291Z,4.47
2023-12-11T05:34:07.095Z,3.95
2023-12-11T05:39:08.854Z,4.57
2023-12-11T05:44:11.060Z,3.97
2023-12-11T05:49:13.158Z,4.47
2023-12-11T05:54:14.988Z,5.30
2023-12-11T05:59:16.760Z,4.38
2023-12-11T06:04:18.476Z,4.65
2023-12-11T06:09:20.214Z,6.05
2023-12-11T06:14:21.974Z,5.10
2023-12-11T06:19:23.782Z,4.18
2023-12-11T06:24:25.564Z,4.45
2023-12-11T06:29:27.511Z,5.25
2023-12-11T06:34:29.333Z,3.10
2023-12-11T06:39:31.490Z,3.17
2023-12-11T06:44:33.227Z,3.35
2023-12-11T06:49:35.226Z,3.42
2023-12-11T06:54:37.052Z,4.25
2023-12-11T06:59:38.900Z,4.38
2023-12-11T07:04:43.705Z,3.80
2023-12-11T07:09:47.801Z,2.78
2023-12-11T07:14:49.635Z,2.95
2023-12-11T07:19:51.457Z,2.60
2023-12-11T07:24:53.224Z,5.50
2023-12-11T07:29:55.003Z,4.70
2023-12-11T07:34:56.766Z,4.03
2023-12-11T07:39:58.613Z,3.67
2023-12-11T07:45:00.573Z,4.57
2023-12-11T07:50:03.114Z,4.85
2023-12-11T07:55:05.619Z,4.35
2023-12-11T08:00:08.998Z,4.40
2023-12-11T08:05:11.277Z,4.47
2023-12-11T08:10:13.280Z,5.15
2023-12-11T08:15:16.247Z,5.32
2023-12-11T08:20:19.085Z,3.63
2023-12-11T08:25:21.472Z,3.28
2023-12-11T08:30:23.297Z,4.93
2023-12-11T08:35:24.993Z,4.97
2023-12-11T08:40:27.677Z,4.05
2023-12-11T08:45:30.312Z,5.50
2023-12-11T08:50:46.622Z,5.28
2023-12-11T08:55:48.573Z,5.75
2023-12-11T09:00:50.506Z,5.38
2023-12-11T09:05:54.855Z,5.53
2023-12-11T09:10:58.135Z,3.75
2023-12-11T09:15:59.872Z,4.70
2023-12-11T09:21:01.614Z,4.28
2023-12-11T09:26:03.456Z,3.97
2023-12-11T09:31:05.810Z,3.60
2023-12-11T09:36:08.381Z,2.83
2023-12-11T09:41:10.184Z,1.77
2023-12-11T09:46:17.429Z,2.30
2023-12-11T09:51:19.710Z,2.45
2023-12-11T09:56:21.405Z,2.75
2023-12-11T10:01:23.547Z,2.45
2023-12-11T10:06:25.566Z,2.78
2023-12-11T10:11:29.624Z,1.77
2023-12-11T10:16:33.592Z,2.67
2023-12-11T10:21:42.708Z,1.30
2023-12-11T10:26:54.103Z,2.07
2023-12-11T10:32:03.917Z,2.40
2023-12-11T10:42:15.485Z,2.60
2023-12-11T10:47:17.650Z,2.58
2023-12-11T10:52:19.607Z,2.38
2023-12-11T10:57:32.635Z,2.45
2023-12-11T11:02:36.286Z,2.08
2023-12-11T11:07:44.852Z,2.15
2023-12-11T11:13:13.277Z,2.20
2023-12-11T11:18:15.137Z,2.85
2023-12-11T11:23:20.058Z,2.47
2023-12-11T11:28:40.568Z,2.53
2023-12-11T11:33:51.035Z,2.20
2023-12-11T11:39:02.069Z,2.35
2023-12-11T11:44:10.411Z,2.15
2023-12-11T11:49:34.123Z,2.85
2023-12-11T11:54:40.915Z,2.55
2023-12-11T11:59:44.375Z,2.03
2023-12-11T12:04:46.220Z,2.38
2023-12-11T12:09:53.173Z,2.10
2023-12-11T12:15:03.021Z,2.03
2023-12-11T12:20:15.981Z,2.30
2023-12-11T12:25:18.307Z,2.05
2023-12-11T12:30:20.706Z,2.20
2023-12-11T12:35:23.585Z,2.15
2023-12-11T12:40:25.436Z,1.90
2023-12-11T12:45:36.162Z,2.03
2023-12-11T12:50:39.094Z,2.05
2023-12-11T12:55:41.533Z,1.92
2023-12-11T13:00:43.819Z,1.77
2023-12-11T13:05:47.118Z,2.15
2023-12-11T13:10:58.463Z,2.03
2023-12-11T13:16:00.314Z,2.03
2023-12-11T13:21:02.165Z,2.40
2023-12-11T13:26:04.099Z,2.20
2023-12-11T13:31:06.140Z,1.80
2023-12-11T13:36:09.265Z,1.98
2023-12-11T13:41:11.786Z,1.85
2023-12-11T13:46:13.577Z,1.55
2023-12-11T13:51:15.403Z,2.90
2023-12-11T13:56:17.201Z,1.90
2023-12-11T14:01:19.116Z,1.92
2023-12-11T14:06:21.384Z,1.70
2023-12-11T14:11:23.194Z,2.10
2023-12-11T14:16:24.966Z,2.20
2023-12-11T14:21:26.713Z,1.58
2023-12-11T14:26:28.768Z,1.60
2023-12-11T14:31:31.174Z,2.03
2023-12-11T14:36:32.997Z,2.08
2023-12-11T14:41:34.947Z,2.42
2023-12-11T14:46:36.804Z,3.42
2023-12-11T14:51:40.624Z,3.97
2023-12-11T14:56:42.871Z,4.53
2023-12-11T15:01:46.412Z,2.67
2023-12-11T15:06:48.273Z,1.88
2023-12-11T15:11:51.134Z,1.48
2023-12-11T15:16:53.487Z,2.85
2023-12-11T15:21:55.309Z,2.67
2023-12-11T15:26:57.170Z,2.03
2023-12-11T15:31:59.084Z,1.88
2023-12-11T15:37:00.885Z,2.08
2023-12-11T15:42:02.733Z,2.35
2023-12-11T15:47:04.764Z,2.03
2023-12-11T15:52:07.700Z,2.35
2023-12-11T15:57:09.849Z,2.22
2023-12-11T16:02:11.650Z,2.50
2023-12-11T16:07:13.579Z,1.95
2023-12-11T16:12:15.309Z,1.88
2023-12-11T16:17:17.781Z,1.60
2023-12-11T16:22:20.430Z,2.42
2023-12-11T16:27:23.770Z,1.75
2023-12-11T16:32:25.501Z,1.38
2023-12-11T16:37:27.407Z,2.38
2023-12-11T16:42:29.542Z,1.45
2023-12-11T16:47:31.729Z,2.25
2023-12-11T16:52:33.757Z,2.17
2023-12-11T16:57:35.855Z,2.20
2023-12-11T17:02:38.320Z,3.00
2023-12-11T17:07:42.532Z,2.10
2023-12-11T17:12:46.436Z,2.20
2023-12-11T17:17:48.200Z,2.60
2023-12-11T17:22:50.051Z,2.22
2023-12-11T17:27:51.973Z,2.17
2023-12-11T17:32:53.779Z,2.20
2023-12-11T17:37:57.799Z,2.38
2023-12-11T17:42:59.558Z,2.97
2023-12-11T17:48:14.319Z,2.70
2023-12-11T17:53:26.441Z,2.65
2023-12-11T17:58:33.576Z,2.90
2023-12-11T18:03:36.246Z,4.03
2023-12-11T18:08:37.980Z,2.92
2023-12-11T18:13:42.955Z,3.30
2023-12-11T18:18:45.596Z,2.60
2023-12-11T18:23:49.664Z,2.40
2023-12-11T18:28:51.442Z,2.67
2023-12-11T18:34:00.758Z,3.58
2023-12-11T18:39:05.920Z,2.80
2023-12-11T18:44:07.841Z,3.13
2023-12-11T18:49:10.483Z,2.70
2023-12-11T18:54:13.345Z,3.85
2023-12-11T18:59:15.912Z,9.52
2023-12-11T19:04:17.748Z,4.30
2023-12-11T19:09:19.550Z,4.18
2023-12-11T19:14:21.377Z,3.83
2023-12-11T19:19:23.204Z,4.57
2023-12-11T19:24:26.637Z,7.78
2023-12-11T19:29:28.469Z,4.65
2023-12-11T19:34:31.595Z,4.30
2023-12-11T19:39:33.444Z,4.85
2023-12-11T19:44:35.386Z,4.18
2023-12-11T19:49:37.257Z,4.30
2023-12-11T19:54:42.089Z,5.50
2023-12-11T19:59:46.758Z,3.78
2023-12-11T20:04:49.282Z,4.70
2023-12-11T20:09:51.683Z,6.97
2023-12-11T20:14:53.405Z,5.30
2023-12-11T20:19:57.650Z,3.70
2023-12-11T20:24:59.520Z,3.90
2023-12-11T20:30:01.496Z,4.30
2023-12-11T20:35:04.378Z,4.40
2023-12-11T20:40:07.090Z,4.05
2023-12-11T20:45:09.127Z,5.18
2023-12-11T20:50:14.232Z,5.95
2023-12-11T20:55:16.144Z,6.45
2023-12-11T21:00:18.061Z,3.60
2023-12-11T21:05:19.894Z,5.00
2023-12-11T21:10:21.929Z,3.17
2023-12-11T21:15:25.929Z,4.75
2023-12-11T21:20:27.971Z,3.58
2023-12-11T21:25:29.840Z,5.75
2023-12-11T21:30:31.834Z,4.68
2023-12-11T21:35:33.578Z,5.20
2023-12-11T21:40:35.339Z,3.17
2023-12-11T21:45:38.426Z,3.60
2023-12-11T21:50:40.160Z,3.00
2023-12-11T21:55:41.891Z,4.38
2023-12-11T22:00:43.850Z,5.20
2023-12-11T22:05:46.425Z,5.78
2023-12-11T22:10:48.234Z,4.47
2023-12-11T22:15:50.005Z,8.15
2023-12-11T22:20:51.768Z,7.88
2023-12-11T22:25:57.629Z,2.88
2023-12-11T22:30:59.362Z,3.10
2023-12-11T22:36:01.240Z,9.20
2023-12-11T22:41:03.038Z,5.45
2023-12-11T22:46:05.586Z,2.00
2023-12-11T22:51:07.566Z,2.15
2023-12-11T22:56:12.200Z,2.30
2023-12-11T23:01:14.138Z,2.28
2023-12-11T23:06:16.082Z,3.80
2023-12-11T23:11:17.852Z,2.17
2023-12-11T23:16:19.691Z,4.93
2023-12-11T23:21:44.985Z,2.85
2023-12-11T23:26:59.042Z,4.43
2023-12-11T23:32:00.711Z,3.95
2023-12-11T23:37:02.481Z,3.45
2023-12-11T23:42:04.481Z,8.20
2023-12-11T23:47:06.673Z,16.25
2023-12-11T23:52:08.535Z,8.35
2023-12-11T23:57:10.359Z,6.97
